TAF Text Data
IDs:
Format:
Raw Decoded Include METAR

Data at: 0340 UTC 30 Jun 2022

KABY 292340Z 3000/3024 VRB03KT P6SM -RA VCTS BKN025CB
  FM300200 VRB03KT P6SM SCT100
  FM300900 00000KT P6SM BKN040
  TEMPO 3009/3012 BKN010
  FM301400 09005KT P6SM SCT050
  FM301800 07005KT 6SM SHRA VCTS BKN050CB
  PROB30 3018/3024 VRB05G15KT 4SM TSRA